createdAt,value
2022-08-27T00:02:25.594Z,21.20
2022-08-27T00:04:52.825Z,21.10
2022-08-27T00:07:20.397Z,21.10
2022-08-27T00:09:47.664Z,21.10
2022-08-27T00:12:17.218Z,21.10
2022-08-27T00:14:47.014Z,21.00
2022-08-27T00:17:16.465Z,21.00
2022-08-27T00:19:45.898Z,21.00
2022-08-27T00:22:15.241Z,21.00
2022-08-27T00:24:49.128Z,20.90
2022-08-27T00:27:18.938Z,20.90
2022-08-27T00:29:48.689Z,20.90
2022-08-27T00:32:16.924Z,20.90
2022-08-27T00:34:53.945Z,20.90
2022-08-27T00:37:25.655Z,20.80
2022-08-27T00:39:53.749Z,20.80
2022-08-27T00:42:22.736Z,20.80
2022-08-27T00:44:52.292Z,20.80
2022-08-27T00:47:26.759Z,20.80
2022-08-27T00:50:02.488Z,20.80
2022-08-27T00:52:34.133Z,20.80
2022-08-27T00:55:17.932Z,20.80
2022-08-27T00:57:49.934Z,20.70
2022-08-27T01:00:19.708Z,20.70
2022-08-27T01:02:49.550Z,20.70
2022-08-27T01:05:21.625Z,20.70
2022-08-27T01:07:51.730Z,20.70
2022-08-27T01:10:21.742Z,20.70
2022-08-27T01:12:54.210Z,20.70
2022-08-27T01:15:26.593Z,20.70
2022-08-27T01:17:54.799Z,20.70
2022-08-27T01:20:37.129Z,20.70
2022-08-27T01:23:22.021Z,20.70
2022-08-27T01:25:50.069Z,20.70
2022-08-27T01:28:18.112Z,20.60
2022-08-27T01:30:51.042Z,20.60
2022-08-27T01:33:20.921Z,20.60
2022-08-27T01:35:50.914Z,20.60
2022-08-27T01:38:31.042Z,20.60
2022-08-27T01:41:01.934Z,20.50
2022-08-27T01:43:32.313Z,20.50
2022-08-27T01:45:59.568Z,20.50
2022-08-27T01:48:26.873Z,20.50
2022-08-27T01:50:56.519Z,20.60
2022-08-27T01:53:27.890Z,20.50
2022-08-27T01:55:58.794Z,20.50
2022-08-27T01:58:30.540Z,20.50
2022-08-27T02:01:05.974Z,20.50
2022-08-27T02:03:36.536Z,20.50
2022-08-27T02:06:07.593Z,20.50
2022-08-27T02:08:35.353Z,20.40
2022-08-27T02:11:05.406Z,20.40
2022-08-27T02:13:39.208Z,20.40
2022-08-27T02:16:11.633Z,20.40
2022-08-27T02:18:41.864Z,20.40
2022-08-27T02:21:12.954Z,20.40
2022-08-27T02:23:40.993Z,20.40
2022-08-27T02:26:10.735Z,20.40
2022-08-27T02:28:40.006Z,20.30
2022-08-27T02:31:07.603Z,20.30
2022-08-27T02:33:37.710Z,20.30
2022-08-27T02:36:06.172Z,20.30
2022-08-27T02:38:36.531Z,20.20
2022-08-27T02:41:06.327Z,20.20
2022-08-27T02:43:36.136Z,20.20
2022-08-27T02:46:06.612Z,20.20
2022-08-27T02:48:38.608Z,20.20
2022-08-27T02:51:09.693Z,20.20
2022-08-27T02:53:39.932Z,20.20
2022-08-27T02:56:08.092Z,20.20
2022-08-27T02:58:35.306Z,20.20
2022-08-27T03:01:05.291Z,20.20
2022-08-27T03:03:38.552Z,20.20
2022-08-27T03:06:10.859Z,20.10
2022-08-27T03:08:52.295Z,20.10
2022-08-27T03:11:24.037Z,20.10
2022-08-27T03:13:51.414Z,20.10
2022-08-27T03:16:19.298Z,20.00
2022-08-27T03:18:51.462Z,20.00
2022-08-27T03:21:23.937Z,19.90
2022-08-27T03:23:53.957Z,19.90
2022-08-27T03:26:24.203Z,19.90
2022-08-27T03:28:51.533Z,19.90
2022-08-27T03:31:27.305Z,19.80
2022-08-27T03:34:00.847Z,19.80
2022-08-27T03:36:31.186Z,19.80
2022-08-27T03:38:58.984Z,19.70
2022-08-27T03:41:45.370Z,19.70
2022-08-27T03:44:21.301Z,19.70
2022-08-27T03:46:54.637Z,19.70
2022-08-27T03:49:22.934Z,19.60
2022-08-27T03:51:52.891Z,19.60
2022-08-27T03:54:22.914Z,19.60
2022-08-27T03:56:52.658Z,19.50
2022-08-27T03:59:20.158Z,19.50
2022-08-27T04:01:47.407Z,19.50
2022-08-27T04:04:14.723Z,19.50
2022-08-27T04:06:44.069Z,19.50
2022-08-27T04:09:13.915Z,19.50
2022-08-27T04:11:43.782Z,19.50
2022-08-27T04:14:25.420Z,19.50
2022-08-27T04:17:00.796Z,19.50
2022-08-27T04:19:28.697Z,19.50
2022-08-27T04:22:06.808Z,19.40
2022-08-27T04:24:40.081Z,19.50
2022-08-27T04:27:07.804Z,19.50
2022-08-27T04:29:37.788Z,19.40
2022-08-27T04:32:11.507Z,19.40
2022-08-27T04:34:42.207Z,19.40
2022-08-27T04:37:11.936Z,19.40
2022-08-27T04:39:39.382Z,19.30
2022-08-27T04:42:06.703Z,19.30
2022-08-27T04:44:33.921Z,19.30
2022-08-27T04:47:04.158Z,19.30
2022-08-27T04:49:34.811Z,19.30
2022-08-27T04:52:03.557Z,19.30
2022-08-27T04:54:35.588Z,19.30
2022-08-27T04:57:07.185Z,19.20
2022-08-27T04:59:38.975Z,19.20
2022-08-27T05:02:11.614Z,19.20
2022-08-27T05:04:40.466Z,19.20
2022-08-27T05:07:10.584Z,19.20
2022-08-27T05:09:38.747Z,19.20
2022-08-27T05:12:09.102Z,19.20
2022-08-27T05:14:38.694Z,19.10
2022-08-27T05:17:07.999Z,19.10
2022-08-27T05:19:35.149Z,19.10
2022-08-27T05:22:02.385Z,19.10
2022-08-27T05:24:32.425Z,19.10
2022-08-27T05:27:04.317Z,19.10
2022-08-27T05:29:31.781Z,19.10
2022-08-27T05:31:59.024Z,19.10
2022-08-27T05:34:26.320Z,19.10
2022-08-27T05:36:54.522Z,19.00
2022-08-27T05:39:26.237Z,19.10
2022-08-27T05:41:59.703Z,19.00
2022-08-27T05:44:42.484Z,19.00
2022-08-27T05:47:10.306Z,19.00
2022-08-27T05:49:37.823Z,19.00
2022-08-27T05:52:09.439Z,18.90
2022-08-27T05:54:39.888Z,18.90
2022-08-27T05:57:07.271Z,18.90
2022-08-27T05:59:53.211Z,19.00
2022-08-27T06:02:22.475Z,19.00
2022-08-27T06:04:54.694Z,19.00
2022-08-27T06:07:22.065Z,19.00
2022-08-27T06:09:51.513Z,19.10
2022-08-27T06:12:28.151Z,19.10
2022-08-27T06:14:55.995Z,19.10
2022-08-27T06:17:25.729Z,19.20
2022-08-27T06:19:55.304Z,19.20
2022-08-27T06:22:27.510Z,19.30
2022-08-27T06:24:54.738Z,19.20
2022-08-27T06:27:21.931Z,19.30
2022-08-27T06:29:49.245Z,19.30
2022-08-27T06:32:21.017Z,19.30
2022-08-27T06:34:48.689Z,19.40
2022-08-27T06:37:20.696Z,19.40
2022-08-27T06:39:51.671Z,19.40
2022-08-27T06:42:18.886Z,19.40
2022-08-27T06:44:48.643Z,19.50
2022-08-27T06:47:16.540Z,19.50
2022-08-27T06:49:53.089Z,19.50
2022-08-27T06:52:20.351Z,19.60
2022-08-27T06:54:47.664Z,19.60
2022-08-27T06:57:14.918Z,19.60
2022-08-27T06:59:42.383Z,19.70
2022-08-27T07:02:12.301Z,19.70
2022-08-27T07:04:41.656Z,19.70
2022-08-27T07:07:13.690Z,19.70
2022-08-27T07:09:43.599Z,19.80
2022-08-27T07:12:12.895Z,19.90
2022-08-27T07:14:43.210Z,19.90
2022-08-27T07:17:16.440Z,20.00
2022-08-27T07:19:46.766Z,20.00
2022-08-27T07:22:18.480Z,20.00
2022-08-27T07:24:51.778Z,20.00
2022-08-27T07:27:21.222Z,20.10
2022-08-27T07:29:48.423Z,20.10
2022-08-27T07:32:18.297Z,20.10
2022-08-27T07:34:47.748Z,20.10
2022-08-27T07:37:17.148Z,20.20
2022-08-27T07:39:44.367Z,20.20
2022-08-27T07:42:32.627Z,20.20
2022-08-27T07:44:59.799Z,20.20
2022-08-27T07:47:32.056Z,20.20
2022-08-27T07:50:00.205Z,20.20
2022-08-27T07:52:29.536Z,20.30
2022-08-27T07:55:01.576Z,20.30
2022-08-27T07:57:36.065Z,20.30
2022-08-27T08:00:04.436Z,20.30
2022-08-27T08:02:31.693Z,20.30
2022-08-27T08:05:01.450Z,20.30
2022-08-27T08:07:31.368Z,20.40
2022-08-27T08:09:59.201Z,20.40
2022-08-27T08:12:27.518Z,20.50
2022-08-27T08:14:57.902Z,20.50
2022-08-27T08:17:25.751Z,20.50
2022-08-27T08:20:18.149Z,20.50
2022-08-27T08:22:41.175Z,20.50
2022-08-27T08:25:08.811Z,20.50
2022-08-27T08:27:41.493Z,20.50
2022-08-27T08:30:12.775Z,20.50
2022-08-27T08:32:45.580Z,20.50
2022-08-27T08:35:13.371Z,20.50
2022-08-27T08:37:43.243Z,20.60
2022-08-27T08:40:19.963Z,20.60
2022-08-27T08:42:54.641Z,20.70
2022-08-27T08:45:29.507Z,20.70
2022-08-27T08:48:09.813Z,20.80
2022-08-27T08:50:51.177Z,20.90
2022-08-27T08:53:35.823Z,20.90
2022-08-27T08:56:08.314Z,20.90
2022-08-27T08:58:41.074Z,20.90
2022-08-27T09:01:10.083Z,21.00
2022-08-27T09:03:42.091Z,21.00
2022-08-27T09:06:25.723Z,21.00
2022-08-27T09:08:53.181Z,21.00
2022-08-27T09:11:50.905Z,21.00
2022-08-27T09:14:46.161Z,21.10
2022-08-27T09:17:13.887Z,21.10
2022-08-27T09:19:43.699Z,21.10
2022-08-27T09:22:43.354Z,21.20
2022-08-27T09:25:28.324Z,21.30
2022-08-27T09:27:58.226Z,21.30
2022-08-27T09:30:30.884Z,21.40
2022-08-27T09:33:04.461Z,21.50
2022-08-27T09:35:42.983Z,21.60
2022-08-27T09:38:26.397Z,21.60
2022-08-27T09:40:56.194Z,21.70
2022-08-27T09:43:29.180Z,21.80
2022-08-27T09:46:00.153Z,21.80
2022-08-27T09:48:33.878Z,21.90
2022-08-27T09:51:13.706Z,22.00
2022-08-27T09:54:02.063Z,22.10
2022-08-27T09:56:40.595Z,22.20
2022-08-27T09:59:22.985Z,22.20
2022-08-27T10:02:14.469Z,22.20
2022-08-27T10:04:50.417Z,22.30
2022-08-27T10:07:29.925Z,22.30
2022-08-27T10:10:03.720Z,22.30
2022-08-27T10:12:51.259Z,22.30
2022-08-27T10:15:18.966Z,22.30
2022-08-27T10:18:08.009Z,22.30
2022-08-27T10:21:04.912Z,22.30
2022-08-27T10:24:05.737Z,22.30
2022-08-27T10:26:43.836Z,22.30
2022-08-27T10:29:57.633Z,22.30
2022-08-27T10:32:34.078Z,22.30
2022-08-27T10:35:48.085Z,22.30
2022-08-27T10:38:30.078Z,22.20
2022-08-27T10:41:11.331Z,22.30
2022-08-27T10:43:52.565Z,22.40
2022-08-27T10:46:38.692Z,22.30
2022-08-27T10:49:29.113Z,22.30
2022-08-27T10:52:18.581Z,22.40
2022-08-27T10:54:53.403Z,22.40
2022-08-27T10:57:55.082Z,22.40
2022-08-27T11:00:25.371Z,22.30
2022-08-27T11:03:25.309Z,22.40
2022-08-27T11:05:53.990Z,22.40
2022-08-27T11:08:38.635Z,22.50
2022-08-27T11:11:51.775Z,22.50
2022-08-27T11:14:01.157Z,22.50
2022-08-27T11:16:45.592Z,22.60
2022-08-27T11:19:27.406Z,22.70
2022-08-27T11:22:23.682Z,22.80
2022-08-27T11:24:57.317Z,22.90
2022-08-27T11:27:28.792Z,22.90
2022-08-27T11:30:26.363Z,22.90
2022-08-27T11:33:15.152Z,23.00
2022-08-27T11:36:13.935Z,23.00
2022-08-27T11:39:12.854Z,23.00
2022-08-27T11:42:12.331Z,23.00
2022-08-27T11:44:46.648Z,23.00
2022-08-27T11:47:24.291Z,23.20
2022-08-27T11:49:58.539Z,23.20
2022-08-27T11:52:29.387Z,23.40
2022-08-27T11:55:21.203Z,23.40
2022-08-27T11:58:05.385Z,23.40
2022-08-27T12:00:40.821Z,23.30
2022-08-27T12:03:29.741Z,23.30
2022-08-27T12:05:56.939Z,23.40
2022-08-27T12:08:26.580Z,23.30
2022-08-27T12:10:56.807Z,23.40
2022-08-27T12:13:49.876Z,23.40
2022-08-27T12:16:31.744Z,23.50
2022-08-27T12:19:25.776Z,23.40
2022-08-27T12:22:17.487Z,23.50
2022-08-27T12:25:01.264Z,23.60
2022-08-27T12:27:32.412Z,23.60
2022-08-27T12:30:07.191Z,23.70
2022-08-27T12:32:40.098Z,23.70
2022-08-27T12:35:21.396Z,23.70
2022-08-27T12:37:56.834Z,23.70
2022-08-27T12:40:39.837Z,23.70
2022-08-27T12:43:08.339Z,23.70
2022-08-27T12:45:52.500Z,23.80
2022-08-27T12:48:25.886Z,23.80
2022-08-27T12:50:59.764Z,23.90
2022-08-27T12:54:09.732Z,23.90
2022-08-27T12:57:05.182Z,24.00
2022-08-27T13:00:10.413Z,24.00
2022-08-27T13:02:52.320Z,23.90
2022-08-27T13:05:23.639Z,24.00
2022-08-27T13:07:53.098Z,24.00
2022-08-27T13:10:31.317Z,24.10
2022-08-27T13:13:06.366Z,24.30
2022-08-27T13:15:35.080Z,24.40
2022-08-27T13:18:08.225Z,24.40
2022-08-27T13:20:39.025Z,24.50
2022-08-27T13:23:20.439Z,24.60
2022-08-27T13:26:00.313Z,24.60
2022-08-27T13:28:30.977Z,24.70
2022-08-27T13:31:01.373Z,24.70
2022-08-27T13:33:35.101Z,24.70
2022-08-27T13:36:04.012Z,24.70
2022-08-27T13:38:37.025Z,24.70
2022-08-27T13:41:09.163Z,24.70
2022-08-27T13:43:48.358Z,24.80
2022-08-27T13:46:32.549Z,24.80
2022-08-27T13:49:00.867Z,24.90
2022-08-27T13:51:38.103Z,24.90
2022-08-27T13:54:13.528Z,25.00
2022-08-27T13:56:51.970Z,25.00
2022-08-27T13:59:19.370Z,25.00
2022-08-27T14:01:59.008Z,25.00
2022-08-27T14:04:43.082Z,24.90
2022-08-27T14:07:36.985Z,24.90
2022-08-27T14:10:27.666Z,24.90
2022-08-27T14:13:03.476Z,24.90
2022-08-27T14:15:35.154Z,24.90
2022-08-27T14:18:20.649Z,24.90
2022-08-27T14:20:54.616Z,24.90
2022-08-27T14:23:24.489Z,24.90
2022-08-27T14:25:53.674Z,24.90
2022-08-27T14:28:21.375Z,24.90
2022-08-27T14:30:53.204Z,24.80
2022-08-27T14:33:25.995Z,24.80
2022-08-27T14:35:55.719Z,24.80
2022-08-27T14:38:24.339Z,24.70
2022-08-27T14:40:58.488Z,24.70
2022-08-27T14:43:28.631Z,24.70
2022-08-27T14:45:57.144Z,24.70
2022-08-27T14:48:31.335Z,24.70
2022-08-27T14:51:02.421Z,24.80
2022-08-27T14:53:29.693Z,24.80
2022-08-27T14:56:01.850Z,24.80
2022-08-27T14:58:33.400Z,24.80
2022-08-27T15:01:03.650Z,24.80
2022-08-27T15:03:37.147Z,24.90
2022-08-27T15:06:06.998Z,24.90
2022-08-27T15:08:34.244Z,24.80
2022-08-27T15:11:06.350Z,24.80
2022-08-27T15:13:38.445Z,24.70
2022-08-27T15:16:06.214Z,24.60
2022-08-27T15:18:35.698Z,24.60
2022-08-27T15:21:03.021Z,24.60
2022-08-27T15:23:32.569Z,24.60
2022-08-27T15:25:59.824Z,24.60
2022-08-27T15:28:27.082Z,24.50
2022-08-27T15:30:54.266Z,24.50
2022-08-27T15:33:24.132Z,24.50
2022-08-27T15:35:51.313Z,24.50
2022-08-27T15:38:20.677Z,24.50
2022-08-27T15:40:48.523Z,24.50
2022-08-27T15:43:18.430Z,24.50
2022-08-27T15:45:45.688Z,24.50
2022-08-27T15:48:13.081Z,24.50
2022-08-27T15:50:41.995Z,24.50
2022-08-27T15:53:12.390Z,24.40
2022-08-27T15:55:43.114Z,24.30
2022-08-27T15:58:13.618Z,24.40
2022-08-27T16:00:46.522Z,24.30
2022-08-27T16:03:15.504Z,24.30
2022-08-27T16:05:46.226Z,24.30
2022-08-27T16:08:14.392Z,24.30
2022-08-27T16:10:46.426Z,24.30
2022-08-27T16:13:16.589Z,24.20
2022-08-27T16:15:43.956Z,24.20
2022-08-27T16:18:13.785Z,24.20
2022-08-27T16:20:43.657Z,24.20
2022-08-27T16:23:13.825Z,24.20
2022-08-27T16:25:43.421Z,24.30
2022-08-27T16:28:13.260Z,24.30
2022-08-27T16:30:43.242Z,24.30
2022-08-27T16:33:14.352Z,24.30
2022-08-27T16:35:42.498Z,24.20
2022-08-27T16:38:11.089Z,24.20
2022-08-27T16:40:50.104Z,24.20
2022-08-27T16:43:25.339Z,24.20
2022-08-27T16:45:55.230Z,24.20
2022-08-27T16:48:42.013Z,24.10
2022-08-27T16:51:38.688Z,24.10
2022-08-27T16:54:09.437Z,24.10
2022-08-27T16:56:40.354Z,24.10
2022-08-27T16:59:07.860Z,24.00
2022-08-27T17:01:35.281Z,24.00
2022-08-27T17:04:10.126Z,24.00
2022-08-27T17:06:42.833Z,24.00
2022-08-27T17:09:10.454Z,24.00
2022-08-27T17:11:41.951Z,24.00
2022-08-27T17:14:12.342Z,24.00
2022-08-27T17:16:43.343Z,24.10
2022-08-27T17:19:17.022Z,24.10
2022-08-27T17:21:45.204Z,24.00
2022-08-27T17:24:15.223Z,24.00
2022-08-27T17:26:44.904Z,24.00
2022-08-27T17:29:12.270Z,24.00
2022-08-27T17:31:44.256Z,24.00
2022-08-27T17:34:23.529Z,24.00
2022-08-27T17:36:52.038Z,23.90
2022-08-27T17:39:19.388Z,23.90
2022-08-27T17:41:49.360Z,23.90
2022-08-27T17:44:23.649Z,23.90
2022-08-27T17:46:53.282Z,23.90
2022-08-27T17:49:20.877Z,23.90
2022-08-27T17:51:49.731Z,23.90
2022-08-27T17:54:32.358Z,23.90
2022-08-27T17:57:01.855Z,23.90
2022-08-27T17:59:33.995Z,23.80
2022-08-27T18:02:08.915Z,23.90
2022-08-27T18:04:39.674Z,23.80
2022-08-27T18:07:06.945Z,23.80
2022-08-27T18:09:36.537Z,23.80
2022-08-27T18:12:05.078Z,23.80
2022-08-27T18:14:35.212Z,23.80
2022-08-27T18:17:05.225Z,23.80
2022-08-27T18:19:32.499Z,23.80
2022-08-27T18:22:00.523Z,23.70
2022-08-27T18:24:27.741Z,23.80
2022-08-27T18:26:54.959Z,23.80
2022-08-27T18:29:22.186Z,23.80
2022-08-27T18:31:49.613Z,23.70
2022-08-27T18:34:20.697Z,23.70
2022-08-27T18:36:48.684Z,23.80
2022-08-27T18:39:15.917Z,23.70
2022-08-27T18:41:45.844Z,23.80
2022-08-27T18:44:17.787Z,23.70
2022-08-27T18:46:45.342Z,23.70
2022-08-27T18:49:15.031Z,23.70
2022-08-27T18:51:46.172Z,23.70
2022-08-27T18:54:16.590Z,23.70
2022-08-27T18:56:43.953Z,23.70
2022-08-27T18:59:15.570Z,23.60
2022-08-27T19:01:43.174Z,23.60
2022-08-27T19:04:19.026Z,23.60
2022-08-27T19:06:46.488Z,23.60
2022-08-27T19:09:16.585Z,23.70
2022-08-27T19:11:48.377Z,23.70
2022-08-27T19:14:20.373Z,23.60
2022-08-27T19:16:56.368Z,23.60
2022-08-27T19:19:27.267Z,23.60
2022-08-27T19:21:54.898Z,23.50
2022-08-27T19:24:24.449Z,23.50
2022-08-27T19:26:53.286Z,23.50
2022-08-27T19:29:20.541Z,23.50
2022-08-27T19:31:50.175Z,23.50
2022-08-27T19:34:17.555Z,23.50
2022-08-27T19:36:44.796Z,23.40
2022-08-27T19:39:13.159Z,23.40
2022-08-27T19:41:43.417Z,23.40
2022-08-27T19:44:10.910Z,23.40
2022-08-27T19:46:40.886Z,23.40
2022-08-27T19:49:08.167Z,23.40
2022-08-27T19:51:35.435Z,23.30
2022-08-27T19:54:07.412Z,23.30
2022-08-27T19:56:37.259Z,23.30
2022-08-27T19:59:20.367Z,23.20
2022-08-27T20:01:48.894Z,23.30
2022-08-27T20:04:16.275Z,23.20
2022-08-27T20:06:50.909Z,23.20
2022-08-27T20:09:21.224Z,23.20
2022-08-27T20:11:51.391Z,23.20
2022-08-27T20:14:23.943Z,23.20
2022-08-27T20:16:52.042Z,23.20
2022-08-27T20:19:19.971Z,23.20
2022-08-27T20:21:47.199Z,23.20
2022-08-27T20:24:19.289Z,23.20
2022-08-27T20:26:47.014Z,23.20
2022-08-27T20:29:32.753Z,23.20
2022-08-27T20:32:01.166Z,23.20
2022-08-27T20:34:29.590Z,23.20
2022-08-27T20:37:01.605Z,23.20
2022-08-27T20:39:31.285Z,23.20
2022-08-27T20:42:03.398Z,23.20
2022-08-27T20:44:31.783Z,23.10
2022-08-27T20:47:02.480Z,23.20
2022-08-27T20:49:32.301Z,23.10
2022-08-27T20:52:02.666Z,23.10
2022-08-27T20:54:33.866Z,23.10
2022-08-27T20:57:04.531Z,23.10
2022-08-27T20:59:55.595Z,23.00
2022-08-27T21:02:27.115Z,23.00
2022-08-27T21:04:57.852Z,22.90
2022-08-27T21:07:27.582Z,22.90
2022-08-27T21:09:57.685Z,22.90
2022-08-27T21:12:26.980Z,22.90
2022-08-27T21:14:55.919Z,22.90
2022-08-27T21:17:28.306Z,22.90
2022-08-27T21:19:56.259Z,22.90
2022-08-27T21:22:24.330Z,22.90
2022-08-27T21:24:54.313Z,22.90
2022-08-27T21:27:23.933Z,22.80
2022-08-27T21:29:53.736Z,22.80
2022-08-27T21:32:21.301Z,22.80
2022-08-27T21:34:53.508Z,22.80
2022-08-27T21:37:21.126Z,22.80
2022-08-27T21:39:50.634Z,22.70
2022-08-27T21:42:17.858Z,22.70
2022-08-27T21:44:47.416Z,22.70
2022-08-27T21:47:14.647Z,22.70
2022-08-27T21:49:42.534Z,22.60
2022-08-27T21:52:11.889Z,22.60
2022-08-27T21:54:41.893Z,22.50
2022-08-27T21:57:14.866Z,22.50
2022-08-27T21:59:46.999Z,22.50
2022-08-27T22:02:40.128Z,22.50
2022-08-27T22:05:09.264Z,22.50
2022-08-27T22:07:36.610Z,22.50
2022-08-27T22:10:13.135Z,22.40
2022-08-27T22:12:45.566Z,22.40
2022-08-27T22:15:13.303Z,22.30
2022-08-27T22:17:42.744Z,22.30
2022-08-27T22:20:10.843Z,22.30
2022-08-27T22:22:38.984Z,22.20
2022-08-27T22:25:07.649Z,22.30
2022-08-27T22:27:37.398Z,22.30
2022-08-27T22:30:09.626Z,22.30
2022-08-27T22:32:39.180Z,22.20
2022-08-27T22:35:10.990Z,22.20
2022-08-27T22:37:38.164Z,22.20
2022-08-27T22:40:11.636Z,22.20
2022-08-27T22:42:52.187Z,22.20
2022-08-27T22:45:20.483Z,22.10
2022-08-27T22:47:50.276Z,22.20
2022-08-27T22:50:22.726Z,22.20
2022-08-27T22:52:52.403Z,22.10
2022-08-27T22:55:24.122Z,22.10
2022-08-27T22:57:54.317Z,22.10
2022-08-27T23:00:33.643Z,22.10
2022-08-27T23:03:06.229Z,22.10
2022-08-27T23:05:41.969Z,22.10
2022-08-27T23:08:13.163Z,22.10
2022-08-27T23:10:41.880Z,22.00
2022-08-27T23:13:14.998Z,22.00
2022-08-27T23:15:45.103Z,21.90
2022-08-27T23:18:15.671Z,21.90
2022-08-27T23:20:42.995Z,21.90
2022-08-27T23:23:12.536Z,21.90
2022-08-27T23:26:02.024Z,21.80
2022-08-27T23:28:29.506Z,21.80
2022-08-27T23:30:56.811Z,21.80
2022-08-27T23:33:24.055Z,21.80
2022-08-27T23:35:51.851Z,21.70
2022-08-27T23:38:20.939Z,21.70
2022-08-27T23:40:52.188Z,21.70
2022-08-27T23:43:22.339Z,21.70
2022-08-27T23:45:52.024Z,21.70
2022-08-27T23:48:22.589Z,21.60
2022-08-27T23:50:52.110Z,21.60
2022-08-27T23:53:19.421Z,21.60
2022-08-27T23:55:46.596Z,21.60
2022-08-27T23:58:16.145Z,21.60
